createdAt,value
2023-02-06T00:00:57.842Z,46.50
2023-02-06T00:03:25.642Z,46.35
2023-02-06T00:05:57.852Z,46.40
2023-02-06T00:08:25.951Z,46.66
2023-02-06T00:10:55.457Z,46.40
2023-02-06T00:13:23.494Z,46.69
2023-02-06T00:15:51.369Z,46.52
2023-02-06T00:18:19.292Z,46.45
2023-02-06T00:20:47.055Z,46.61
2023-02-06T00:23:14.921Z,46.71
2023-02-06T00:25:42.663Z,46.43
2023-02-06T00:28:12.007Z,46.42
2023-02-06T00:30:40.028Z,46.54
2023-02-06T00:33:08.408Z,46.45
2023-02-06T00:35:36.543Z,46.44
2023-02-06T00:38:06.688Z,46.48
2023-02-06T00:40:34.580Z,46.57
2023-02-06T00:43:02.376Z,46.69
2023-02-06T00:45:31.701Z,46.53
2023-02-06T00:47:59.676Z,46.64
2023-02-06T00:50:27.941Z,46.57
2023-02-06T00:52:55.901Z,46.83
2023-02-06T00:55:23.958Z,46.63
2023-02-06T00:57:51.806Z,46.69
2023-02-06T01:00:20.031Z,46.68
2023-02-06T01:02:49.254Z,46.69
2023-02-06T01:05:17.640Z,46.87
2023-02-06T01:07:45.718Z,46.87
2023-02-06T01:10:13.985Z,46.99
2023-02-06T01:12:42.131Z,46.75
2023-02-06T01:15:13.452Z,46.69
2023-02-06T01:17:42.673Z,46.86
2023-02-06T01:20:15.055Z,46.70
2023-02-06T01:22:42.896Z,46.81
2023-02-06T01:25:12.887Z,46.68
2023-02-06T01:27:40.970Z,46.60
2023-02-06T01:30:10.112Z,46.89
2023-02-06T01:32:38.905Z,46.76
2023-02-06T01:35:07.963Z,46.94
2023-02-06T01:37:40.596Z,46.67
2023-02-06T01:40:12.952Z,47.01
2023-02-06T01:42:41.322Z,47.05
2023-02-06T01:45:38.934Z,46.64
2023-02-06T01:48:11.025Z,46.82
2023-02-06T01:50:41.781Z,46.86
2023-02-06T01:53:13.990Z,46.83
2023-02-06T01:55:45.152Z,46.94
2023-02-06T01:58:18.056Z,46.86
2023-02-06T02:00:46.804Z,47.01
2023-02-06T02:03:15.199Z,46.96
2023-02-06T02:05:46.535Z,47.03
2023-02-06T02:08:19.282Z,46.85
2023-02-06T02:10:48.415Z,47.04
2023-02-06T02:13:16.936Z,46.87
2023-02-06T02:15:55.351Z,46.96
2023-02-06T02:18:38.967Z,46.95
2023-02-06T02:21:43.532Z,46.76
2023-02-06T02:24:22.839Z,47.00
2023-02-06T02:27:21.712Z,47.13
2023-02-06T02:30:11.124Z,46.86
2023-02-06T02:33:15.052Z,46.90
2023-02-06T02:35:52.535Z,46.96
2023-02-06T02:38:32.290Z,47.29
2023-02-06T02:41:11.185Z,46.86
2023-02-06T02:43:44.640Z,47.04
2023-02-06T02:46:26.088Z,46.80
2023-02-06T02:52:13.846Z,46.97
2023-02-06T02:54:46.035Z,46.90
2023-02-06T02:57:25.999Z,47.17
2023-02-06T03:00:08.066Z,46.96
2023-02-06T03:02:38.912Z,47.14
2023-02-06T03:05:12.195Z,46.96
2023-02-06T03:07:58.314Z,47.08
2023-02-06T03:10:35.066Z,47.05
2023-02-06T03:13:16.477Z,47.19
2023-02-06T03:15:54.084Z,47.10
2023-02-06T03:18:32.110Z,47.25
2023-02-06T03:21:02.983Z,46.96
2023-02-06T03:23:35.657Z,47.18
2023-02-06T03:26:07.591Z,47.22
2023-02-06T03:28:39.320Z,47.24
2023-02-06T03:31:11.005Z,47.13
2023-02-06T03:33:46.472Z,46.92
2023-02-06T03:36:17.139Z,47.21
2023-02-06T03:38:49.804Z,47.05
2023-02-06T03:41:26.245Z,47.27
2023-02-06T03:43:56.685Z,47.08
2023-02-06T03:46:41.199Z,46.92
2023-02-06T03:49:13.743Z,47.16
2023-02-06T03:51:46.621Z,47.22
2023-02-06T03:54:20.147Z,47.18
2023-02-06T03:56:53.164Z,47.04
2023-02-06T03:59:23.703Z,47.51
2023-02-06T04:02:00.012Z,47.12
2023-02-06T04:04:34.838Z,47.10
2023-02-06T04:07:21.878Z,46.96
2023-02-06T04:10:06.329Z,46.76
2023-02-06T04:12:34.605Z,46.91
2023-02-06T04:15:02.601Z,47.00
2023-02-06T04:17:46.280Z,46.87
2023-02-06T04:20:18.007Z,46.87
2023-02-06T04:22:45.940Z,46.92
2023-02-06T04:25:15.238Z,46.64
2023-02-06T04:27:44.293Z,47.11
2023-02-06T04:30:13.772Z,46.79
2023-02-06T04:32:41.784Z,46.91
2023-02-06T04:35:13.023Z,46.80
2023-02-06T04:37:40.993Z,46.85
2023-02-06T04:40:09.335Z,46.93
2023-02-06T04:42:38.567Z,46.77
2023-02-06T04:45:07.046Z,47.08
2023-02-06T04:47:49.573Z,46.90
2023-02-06T04:50:18.178Z,47.09
2023-02-06T04:52:46.220Z,47.03
2023-02-06T04:55:14.226Z,46.89
2023-02-06T04:57:43.792Z,46.88
2023-02-06T05:00:14.900Z,46.58
2023-02-06T05:02:42.888Z,46.87
2023-02-06T05:05:11.484Z,47.00
2023-02-06T05:07:39.655Z,46.61
2023-02-06T05:10:09.068Z,46.66
2023-02-06T05:12:37.908Z,46.84
2023-02-06T05:15:31.439Z,46.54
2023-02-06T05:18:02.667Z,46.60
2023-02-06T05:20:30.844Z,46.91
2023-02-06T05:22:58.765Z,46.66
2023-02-06T05:25:26.722Z,46.89
2023-02-06T05:28:06.429Z,46.92
2023-02-06T05:30:36.222Z,46.94
2023-02-06T05:33:04.030Z,47.08
2023-02-06T05:35:31.801Z,47.03
2023-02-06T05:37:59.709Z,46.95
2023-02-06T05:40:28.484Z,46.96
2023-02-06T05:42:56.648Z,46.90
2023-02-06T05:45:24.448Z,47.09
2023-02-06T05:47:54.924Z,47.12
2023-02-06T05:50:23.453Z,47.15
2023-02-06T05:52:52.858Z,47.24
2023-02-06T05:55:21.245Z,47.21
2023-02-06T05:57:49.522Z,47.05
2023-02-06T06:00:18.224Z,47.37
2023-02-06T06:02:46.205Z,47.34
2023-02-06T06:05:15.974Z,47.34
2023-02-06T06:07:44.078Z,47.43
2023-02-06T06:10:12.675Z,47.42
2023-02-06T06:12:51.788Z,47.73
2023-02-06T06:15:22.841Z,47.43
2023-02-06T06:17:57.251Z,47.57
2023-02-06T06:20:32.249Z,47.71
2023-02-06T06:23:03.145Z,47.76
2023-02-06T06:25:31.304Z,47.94
2023-02-06T06:28:00.383Z,47.86
2023-02-06T06:30:28.738Z,47.72
2023-02-06T06:32:56.627Z,47.71
2023-02-06T06:35:28.719Z,47.64
2023-02-06T06:37:56.553Z,47.88
2023-02-06T06:40:24.340Z,47.74
2023-02-06T06:42:52.208Z,47.62
2023-02-06T06:45:20.290Z,47.64
2023-02-06T06:47:48.403Z,47.74
2023-02-06T06:50:16.541Z,47.65
2023-02-06T06:52:45.958Z,47.95
2023-02-06T06:55:13.936Z,47.68
2023-02-06T06:57:42.218Z,48.03
2023-02-06T07:00:11.881Z,47.84
2023-02-06T07:02:39.957Z,47.68
2023-02-06T07:05:08.369Z,47.92
2023-02-06T07:07:36.567Z,47.99
2023-02-06T07:10:07.300Z,48.04
2023-02-06T07:12:35.383Z,48.06
2023-02-06T07:15:03.486Z,48.22
2023-02-06T07:17:32.152Z,48.11
2023-02-06T07:20:00.272Z,48.12
2023-02-06T07:22:28.279Z,47.98
2023-02-06T07:25:01.037Z,48.14
2023-02-06T07:27:34.200Z,48.25
2023-02-06T07:30:03.989Z,47.99
2023-02-06T07:32:35.782Z,48.42
2023-02-06T07:35:04.264Z,48.31
2023-02-06T07:37:32.149Z,48.29
2023-02-06T07:40:00.228Z,48.47
2023-02-06T07:42:28.050Z,48.30
2023-02-06T07:45:01.948Z,48.33
2023-02-06T07:47:29.796Z,48.31
2023-02-06T07:49:57.926Z,48.41
2023-02-06T07:52:25.832Z,48.40
2023-02-06T07:54:53.802Z,48.29
2023-02-06T07:57:21.810Z,48.72
2023-02-06T07:59:52.358Z,48.49
2023-02-06T08:02:21.719Z,48.86
2023-02-06T08:04:49.539Z,48.60
2023-02-06T08:07:18.073Z,48.74
2023-02-06T08:09:48.859Z,48.72
2023-02-06T08:12:16.794Z,48.77
2023-02-06T08:14:45.853Z,48.73
2023-02-06T08:17:14.068Z,48.86
2023-02-06T08:19:43.344Z,49.06
2023-02-06T08:22:11.358Z,48.98
2023-02-06T08:24:39.203Z,48.97
2023-02-06T08:27:07.833Z,49.04
2023-02-06T08:29:42.349Z,49.26
2023-02-06T08:32:10.445Z,49.07
2023-02-06T08:34:39.785Z,49.12
2023-02-06T08:37:08.999Z,49.07
2023-02-06T08:39:38.208Z,49.15
2023-02-06T08:42:06.282Z,49.11
2023-02-06T08:44:34.092Z,49.21
2023-02-06T08:47:10.203Z,49.03
2023-02-06T08:49:38.480Z,49.18
2023-02-06T08:52:06.779Z,49.01
2023-02-06T08:54:38.633Z,49.26
2023-02-06T08:57:07.155Z,49.14
2023-02-06T08:59:35.010Z,49.07
2023-02-06T09:02:02.854Z,49.03
2023-02-06T09:04:32.598Z,49.33
2023-02-06T09:07:03.067Z,48.98
2023-02-06T09:09:30.886Z,49.09
2023-02-06T09:12:03.564Z,49.26
2023-02-06T09:14:32.328Z,49.21
2023-02-06T09:17:00.147Z,49.12
2023-02-06T09:19:28.126Z,49.00
2023-02-06T09:21:56.191Z,49.18
2023-02-06T09:24:24.065Z,49.08
2023-02-06T09:26:59.850Z,49.36
2023-02-06T09:29:31.644Z,49.40
2023-02-06T09:32:00.006Z,49.30
2023-02-06T09:34:28.498Z,49.46
2023-02-06T09:36:56.808Z,49.54
2023-02-06T09:39:25.302Z,49.68
2023-02-06T09:41:55.122Z,49.40
2023-02-06T09:44:29.308Z,49.27
2023-02-06T09:47:00.366Z,49.39
2023-02-06T09:49:36.835Z,49.47
2023-02-06T09:52:36.312Z,49.64
2023-02-06T09:55:11.287Z,49.96
2023-02-06T09:57:46.914Z,49.84
2023-02-06T10:00:29.639Z,49.76
2023-02-06T10:03:18.572Z,50.02
2023-02-06T10:05:54.432Z,50.00
2023-02-06T10:08:25.127Z,49.64
2023-02-06T10:10:55.839Z,49.56
2023-02-06T10:13:29.736Z,49.61
2023-02-06T10:16:02.425Z,49.42
2023-02-06T10:18:37.165Z,49.24
2023-02-06T10:21:11.964Z,49.14
2023-02-06T10:23:47.634Z,49.06
2023-02-06T10:26:18.284Z,49.07
2023-02-06T10:28:49.500Z,48.91
2023-02-06T10:31:28.582Z,49.11
2023-02-06T10:34:15.845Z,49.18
2023-02-06T10:36:56.356Z,49.53
2023-02-06T10:39:43.994Z,49.03
2023-02-06T10:42:19.489Z,49.52
2023-02-06T10:44:59.500Z,49.20
2023-02-06T10:47:33.635Z,49.82
2023-02-06T10:50:20.757Z,49.49
2023-02-06T10:52:49.354Z,49.35
2023-02-06T10:55:23.231Z,49.11
2023-02-06T10:58:04.515Z,49.14
2023-02-06T11:00:33.223Z,49.43
2023-02-06T11:03:08.141Z,49.53
2023-02-06T11:05:38.532Z,49.35
2023-02-06T11:08:15.109Z,48.97
2023-02-06T11:10:42.999Z,49.29
2023-02-06T11:13:14.900Z,48.95
2023-02-06T11:15:57.411Z,48.83
2023-02-06T11:18:30.651Z,48.94
2023-02-06T11:21:00.241Z,49.17
2023-02-06T11:23:29.717Z,48.90
2023-02-06T11:26:06.185Z,48.50
2023-02-06T11:28:35.547Z,48.93
2023-02-06T11:31:06.574Z,48.32
2023-02-06T11:33:42.169Z,48.08
2023-02-06T11:36:25.032Z,48.16
2023-02-06T11:38:58.458Z,48.27
2023-02-06T11:41:26.729Z,48.52
2023-02-06T11:44:01.621Z,48.14
2023-02-06T11:46:32.367Z,48.27
2023-02-06T11:49:07.028Z,47.88
2023-02-06T11:51:51.552Z,48.15
2023-02-06T11:54:27.899Z,48.13
2023-02-06T11:57:03.302Z,48.63
2023-02-06T11:59:34.365Z,48.79
2023-02-06T12:02:05.770Z,49.09
2023-02-06T12:04:37.495Z,48.51
2023-02-06T12:07:15.595Z,48.33
2023-02-06T12:09:43.868Z,48.50
2023-02-06T12:12:21.426Z,47.64
2023-02-06T12:14:54.727Z,47.63
2023-02-06T12:17:28.713Z,47.99
2023-02-06T12:20:05.484Z,47.49
2023-02-06T12:22:40.901Z,47.92
2023-02-06T12:25:26.616Z,47.59
2023-02-06T12:27:58.010Z,48.12
2023-02-06T12:30:37.586Z,47.70
2023-02-06T12:33:13.200Z,48.08
2023-02-06T12:35:44.956Z,48.04
2023-02-06T12:38:23.129Z,47.58
2023-02-06T12:41:07.396Z,47.55
2023-02-06T12:43:39.201Z,48.05
2023-02-06T12:46:11.548Z,47.73
2023-02-06T12:48:44.976Z,47.53
2023-02-06T12:51:19.508Z,47.59
2023-02-06T12:53:52.763Z,47.53
2023-02-06T12:56:28.176Z,47.56
2023-02-06T12:59:06.808Z,47.28
2023-02-06T13:01:46.576Z,47.36
2023-02-06T13:04:17.978Z,47.79
2023-02-06T13:06:52.296Z,47.44
2023-02-06T13:09:30.539Z,46.86
2023-02-06T13:12:09.263Z,47.14
2023-02-06T13:14:39.823Z,47.73
2023-02-06T13:17:11.847Z,47.45
2023-02-06T13:20:04.262Z,47.09
2023-02-06T13:22:40.220Z,47.42
2023-02-06T13:25:37.905Z,47.03
2023-02-06T13:28:39.308Z,47.16
2023-02-06T13:31:26.945Z,46.87
2023-02-06T13:33:58.528Z,47.29
2023-02-06T13:36:41.543Z,47.47
2023-02-06T13:39:37.693Z,47.30
2023-02-06T13:42:35.496Z,47.24
2023-02-06T13:45:06.475Z,47.64
2023-02-06T13:48:07.973Z,47.46
2023-02-06T13:50:46.796Z,47.71
2023-02-06T13:54:01.559Z,47.72
2023-02-06T13:56:54.903Z,47.76
2023-02-06T13:59:25.323Z,48.20
2023-02-06T14:01:54.231Z,48.13
2023-02-06T14:04:26.425Z,47.81
2023-02-06T14:07:08.602Z,47.86
2023-02-06T14:10:06.367Z,47.93
2023-02-06T14:12:46.868Z,47.96
2023-02-06T14:15:31.789Z,47.91
2023-02-06T14:18:13.478Z,48.04
2023-02-06T14:20:50.534Z,48.00
2023-02-06T14:23:31.030Z,47.74
2023-02-06T14:26:13.265Z,47.95
2023-02-06T14:28:51.611Z,47.98
2023-02-06T14:31:36.549Z,47.82
2023-02-06T14:34:21.034Z,48.03
2023-02-06T14:37:06.228Z,48.03
2023-02-06T14:39:49.662Z,48.08
2023-02-06T14:42:21.867Z,48.19
2023-02-06T14:44:54.937Z,47.86
2023-02-06T14:47:26.025Z,48.39
2023-02-06T14:49:55.126Z,48.35
2023-02-06T14:52:26.732Z,48.01
2023-02-06T14:54:54.629Z,48.21
2023-02-06T14:57:25.253Z,48.08
2023-02-06T14:59:55.855Z,47.95
2023-02-06T15:02:27.460Z,48.13
2023-02-06T15:04:56.170Z,48.19
2023-02-06T15:07:30.103Z,48.15
2023-02-06T15:10:02.493Z,47.99
2023-02-06T15:12:32.077Z,48.27
2023-02-06T15:15:02.731Z,48.35
2023-02-06T15:17:32.067Z,48.00
2023-02-06T15:20:16.356Z,48.08
2023-02-06T15:22:45.687Z,48.43
2023-02-06T15:25:28.998Z,48.02
2023-02-06T15:28:02.803Z,48.20
2023-02-06T15:30:30.963Z,48.57
2023-02-06T15:32:58.873Z,48.26
2023-02-06T15:35:29.915Z,48.42
2023-02-06T15:38:05.080Z,48.53
2023-02-06T15:40:37.792Z,48.56
2023-02-06T15:43:06.989Z,48.81
2023-02-06T15:45:38.055Z,48.75
2023-02-06T15:48:13.077Z,48.81
2023-02-06T15:50:40.913Z,48.81
2023-02-06T15:53:20.572Z,48.92
2023-02-06T15:55:53.575Z,48.95
2023-02-06T15:58:21.505Z,49.35
2023-02-06T16:00:54.736Z,48.77
2023-02-06T16:03:26.524Z,48.41
2023-02-06T16:05:56.438Z,48.82
2023-02-06T16:08:32.007Z,48.86
2023-02-06T16:11:03.663Z,48.56
2023-02-06T16:13:33.669Z,48.72
2023-02-06T16:16:19.962Z,48.67
2023-02-06T16:18:48.956Z,48.97
2023-02-06T16:21:29.625Z,48.85
2023-02-06T16:24:16.615Z,48.75
2023-02-06T16:26:47.893Z,48.64
2023-02-06T16:29:27.827Z,48.78
2023-02-06T16:32:01.525Z,48.54
2023-02-06T16:34:37.168Z,48.92
2023-02-06T16:37:10.821Z,48.98
2023-02-06T16:39:42.251Z,48.80
2023-02-06T16:42:14.686Z,48.78
2023-02-06T16:44:45.570Z,48.64
2023-02-06T16:47:16.690Z,48.55
2023-02-06T16:49:44.647Z,48.51
2023-02-06T16:52:18.906Z,48.82
2023-02-06T16:54:49.146Z,48.74
2023-02-06T16:57:27.494Z,48.81
2023-02-06T16:59:55.397Z,48.79
2023-02-06T17:02:23.745Z,48.62
2023-02-06T17:04:51.745Z,48.47
2023-02-06T17:07:21.910Z,48.70
2023-02-06T17:09:53.883Z,48.55
2023-02-06T17:12:23.286Z,48.81
2023-02-06T17:14:51.488Z,48.66
2023-02-06T17:17:20.843Z,48.63
2023-02-06T17:19:49.999Z,48.57
2023-02-06T17:22:18.387Z,48.66
2023-02-06T17:24:46.487Z,48.52
2023-02-06T17:27:17.406Z,48.76
2023-02-06T17:29:47.562Z,48.55
2023-02-06T17:32:18.006Z,48.53
2023-02-06T17:34:45.946Z,48.71
2023-02-06T17:37:20.691Z,48.75
2023-02-06T17:39:50.162Z,48.79
2023-02-06T17:42:21.754Z,48.75
2023-02-06T17:44:49.808Z,48.48
2023-02-06T17:47:17.646Z,48.46
2023-02-06T17:49:46.807Z,48.50
2023-02-06T17:52:15.055Z,48.29
2023-02-06T17:54:43.247Z,48.19
2023-02-06T17:57:13.227Z,48.47
2023-02-06T17:59:42.528Z,48.20
2023-02-06T18:02:14.370Z,48.21
2023-02-06T18:04:42.198Z,48.47
2023-02-06T18:07:10.146Z,48.31
2023-02-06T18:09:38.064Z,48.45
2023-02-06T18:12:06.120Z,48.33
2023-02-06T18:14:35.391Z,48.35
2023-02-06T18:17:04.645Z,48.54
2023-02-06T18:19:40.518Z,48.44
2023-02-06T18:22:09.039Z,48.61
2023-02-06T18:24:37.214Z,48.70
2023-02-06T18:27:05.867Z,48.56
2023-02-06T18:29:48.591Z,48.54
2023-02-06T18:32:19.937Z,48.25
2023-02-06T18:34:47.903Z,48.24
2023-02-06T18:37:16.274Z,48.62
2023-02-06T18:39:44.196Z,48.54
2023-02-06T18:42:29.607Z,48.67
2023-02-06T18:44:57.535Z,48.78
2023-02-06T18:47:26.693Z,48.70
2023-02-06T18:49:54.733Z,48.66
2023-02-06T18:52:22.564Z,48.39
2023-02-06T18:54:50.410Z,48.29
2023-02-06T18:57:18.266Z,48.69
2023-02-06T18:59:46.144Z,48.48
2023-02-06T19:02:14.224Z,48.46
2023-02-06T19:04:43.924Z,48.43
2023-02-06T19:07:11.831Z,48.41
2023-02-06T19:09:40.106Z,48.35
2023-02-06T19:12:08.491Z,48.45
2023-02-06T19:14:36.577Z,48.54
2023-02-06T19:17:04.431Z,48.59
2023-02-06T19:19:32.404Z,48.56
2023-02-06T19:22:01.613Z,48.52
2023-02-06T19:24:30.697Z,48.55
2023-02-06T19:26:58.598Z,48.52
2023-02-06T19:29:35.221Z,48.35
2023-02-06T19:32:07.373Z,48.25
2023-02-06T19:34:37.454Z,48.57
2023-02-06T19:37:07.972Z,48.40
2023-02-06T19:39:37.982Z,48.48
2023-02-06T19:42:07.015Z,48.22
2023-02-06T19:44:35.113Z,48.34
2023-02-06T19:47:03.852Z,48.24
2023-02-06T19:49:31.967Z,48.64
2023-02-06T19:52:00.443Z,48.51
2023-02-06T19:54:29.624Z,48.40
2023-02-06T19:56:57.666Z,48.64
2023-02-06T19:59:27.557Z,48.43
2023-02-06T20:01:57.592Z,48.50
2023-02-06T20:04:27.759Z,48.36
2023-02-06T20:06:55.885Z,48.26
2023-02-06T20:09:24.712Z,48.33
2023-02-06T20:11:54.051Z,48.07
2023-02-06T20:14:23.869Z,48.36
2023-02-06T20:16:51.787Z,48.05
2023-02-06T20:19:22.084Z,48.26
2023-02-06T20:21:52.307Z,48.10
2023-02-06T20:24:21.984Z,48.01
2023-02-06T20:26:53.011Z,47.94
2023-02-06T20:29:26.615Z,47.79
2023-02-06T20:31:55.689Z,47.98
2023-02-06T20:34:24.387Z,48.11
2023-02-06T20:36:52.784Z,48.00
2023-02-06T20:39:21.069Z,48.14
2023-02-06T20:41:50.272Z,47.85
2023-02-06T20:44:19.593Z,47.68
2023-02-06T20:46:48.914Z,48.05
2023-02-06T20:49:19.285Z,47.91
2023-02-06T20:51:51.945Z,47.97
2023-02-06T20:54:20.605Z,47.77
2023-02-06T20:56:52.076Z,47.77
2023-02-06T20:59:21.290Z,47.63
2023-02-06T21:01:50.704Z,47.93
2023-02-06T21:04:19.928Z,47.48
2023-02-06T21:06:49.968Z,47.89
2023-02-06T21:09:18.883Z,47.69
2023-02-06T21:11:48.844Z,47.82
2023-02-06T21:14:17.416Z,47.81
2023-02-06T21:16:45.345Z,47.67
2023-02-06T21:19:16.813Z,47.86
2023-02-06T21:21:46.302Z,47.69
2023-02-06T21:24:15.133Z,47.89
2023-02-06T21:26:43.598Z,48.06
2023-02-06T21:29:12.202Z,47.77
2023-02-06T21:31:40.125Z,47.92
2023-02-06T21:34:09.918Z,47.70
2023-02-06T21:36:40.224Z,47.66
2023-02-06T21:39:08.701Z,47.76
2023-02-06T21:41:36.917Z,47.91
2023-02-06T21:44:05.724Z,47.69
2023-02-06T21:46:34.500Z,47.71
2023-02-06T21:49:02.627Z,47.49
2023-02-06T21:51:31.489Z,47.54
2023-02-06T21:54:00.898Z,47.45
2023-02-06T21:56:29.790Z,47.47
2023-02-06T21:58:58.120Z,47.47
2023-02-06T22:01:27.722Z,47.33
2023-02-06T22:03:57.027Z,47.33
2023-02-06T22:06:25.347Z,47.34
2023-02-06T22:08:55.808Z,47.56
2023-02-06T22:11:26.677Z,47.17
2023-02-06T22:13:58.777Z,47.16
2023-02-06T22:16:27.759Z,47.19
2023-02-06T22:18:55.961Z,47.29
2023-02-06T22:21:26.292Z,47.11
2023-02-06T22:23:56.701Z,47.30
2023-02-06T22:26:26.734Z,47.22
2023-02-06T22:28:54.811Z,47.18
2023-02-06T22:31:24.837Z,47.30
2023-02-06T22:33:53.907Z,47.26
2023-02-06T22:36:23.885Z,47.21
2023-02-06T22:38:54.682Z,47.00
2023-02-06T22:41:22.868Z,47.05
2023-02-06T22:43:52.760Z,46.99
2023-02-06T22:46:23.018Z,47.04
2023-02-06T22:48:51.489Z,46.95
2023-02-06T22:51:20.168Z,47.03
2023-02-06T22:53:48.399Z,46.78
2023-02-06T22:56:29.453Z,46.75
2023-02-06T22:59:02.191Z,46.84
2023-02-06T23:01:33.033Z,47.02
2023-02-06T23:04:02.063Z,47.07
2023-02-06T23:06:31.301Z,46.86
2023-02-06T23:09:00.117Z,46.72
2023-02-06T23:11:28.373Z,46.76
2023-02-06T23:13:59.944Z,46.85
2023-02-06T23:16:29.010Z,46.77
2023-02-06T23:18:56.919Z,46.75
2023-02-06T23:21:27.221Z,46.63
2023-02-06T23:23:55.912Z,46.69
2023-02-06T23:26:24.834Z,46.84
2023-02-06T23:28:52.939Z,46.79
2023-02-06T23:31:22.182Z,46.84
2023-02-06T23:33:49.974Z,46.89
2023-02-06T23:36:20.114Z,47.07
2023-02-06T23:38:48.345Z,46.84
2023-02-06T23:41:18.207Z,46.92
2023-02-06T23:43:50.166Z,46.99
2023-02-06T23:46:19.811Z,46.85
2023-02-06T23:48:49.646Z,46.79
2023-02-06T23:51:18.070Z,47.14
2023-02-06T23:53:46.109Z,46.90
2023-02-06T23:56:15.502Z,46.68
2023-02-06T23:58:43.991Z,46.98
